Time;durP1;ratioP1;P1;durP2;ratioP2;P2;SDS_P1;SDS_P2;PMS_P1;PMS_P2;Temp;Humidity;BMP_temperature;BMP_pressure;BME280_temperature;BME280_humidity;BME280_pressure;Samples;Min_cycle;Max_cycle;Signal;HPM_P1;HPM_P2
2021/04/29 00:02:23;;;;;;;18.33;16.63;;;;;;;;;;5001763;28;20185;-60
2021/04/29 00:04:49;;;;;;;17.63;16.03;;;;;;;;;;5000999;28;20196;-59
2021/04/29 00:07:15;;;;;;;18.23;15.67;;;;;;;;;;5004461;28;20182;-59
2021/04/29 00:09:41;;;;;;;17.17;15.43;;;;;;;;;;4999289;28;20205;-59
2021/04/29 00:12:07;;;;;;;15.73;14.17;;;;;;;;;;5005371;28;20891;-59
2021/04/29 00:14:33;;;;;;;16.90;15.20;;;;;;;;;;5008126;28;20931;-60
2021/04/29 00:16:59;;;;;;;16.60;15.10;;;;;;;;;;5001390;28;20281;-59
2021/04/29 00:19:26;;;;;;;19.10;16.80;;;;;;;;;;5005657;28;20308;-59
2021/04/29 00:21:52;;;;;;;19.53;17.40;;;;;;;;;;4999769;28;20635;-59
2021/04/29 00:24:19;;;;;;;19.83;17.73;;;;;;;;;;5004367;28;20227;-60
2021/04/29 00:26:45;;;;;;;20.83;18.83;;;;;;;;;;5006300;28;20207;-60
2021/04/29 00:29:11;;;;;;;22.23;20.03;;;;;;;;;;5001775;28;20205;-59
2021/04/29 00:31:37;;;;;;;23.17;20.77;;;;;;;;;;5004527;28;20248;-57
2021/04/29 00:34:04;;;;;;;22.30;19.67;;;;;;;;;;5008669;28;20182;-59
2021/04/29 00:36:30;;;;;;;22.70;20.40;;;;;;;;;;5005997;28;20692;-62
2021/04/29 00:38:56;;;;;;;23.07;20.67;;;;;;;;;;5000167;28;20209;-61
2021/04/29 00:41:23;;;;;;;24.03;21.63;;;;;;;;;;4999892;28;20268;-62
2021/04/29 00:43:49;;;;;;;23.40;21.30;;;;;;;;;;5009208;28;20185;-61
2021/04/29 00:46:15;;;;;;;24.43;22.03;;;;;;;;;;5005426;28;20650;-61
2021/04/29 00:48:44;;;;;;;24.67;22.03;;;;;;;;;;5001799;28;20221;-62
2021/04/29 00:51:11;;;;;;;24.77;22.17;;;;;;;;;;5003694;28;20793;-60
2021/04/29 00:53:41;;;;;;;26.17;23.47;;;;;;;;;;5003273;28;20267;-60
2021/04/29 00:56:08;;;;;;;25.17;22.53;;;;;;;;;;5003006;28;20590;-62
2021/04/29 00:58:34;;;;;;;25.77;23.23;;;;;;;;;;5006335;28;20193;-61
2021/04/29 01:01:00;;;;;;;25.80;23.30;;;;;;;;;;5001133;28;20196;-61
2021/04/29 01:03:32;;;;;;;25.60;23.27;;;;;;;;;;5000948;28;20727;-58
2021/04/29 01:06:02;;;;;;;30.13;25.30;;;;;;;;;;5000343;28;20576;-59
2021/04/29 01:08:31;;;;;;;28.50;24.43;;;;;;;;;;5007989;28;20196;-60
2021/04/29 01:10:59;;;;;;;24.83;22.17;;;;;;;;;;4999192;28;20202;-60
2021/04/29 01:13:26;;;;;;;25.73;23.03;;;;;;;;;;4999588;28;20320;-60
2021/04/29 01:15:53;;;;;;;24.47;21.80;;;;;;;;;;5006864;28;20224;-60
2021/04/29 01:18:21;;;;;;;24.13;21.57;;;;;;;;;;5004327;28;20193;-58
2021/04/29 01:21:05;;;;;;;22.87;20.50;;;;;;;;;;4996833;28;20206;-61
2021/04/29 01:23:49;;;;;;;20.43;17.33;;;;;;;;;;5007161;28;20209;-61
2021/04/29 01:26:34;;;;;;;16.47;14.87;;;;;;;;;;5004961;28;20272;-62
2021/04/29 01:29:05;;;;;;;14.77;13.33;;;;;;;;;;4998164;28;21547;-60
2021/04/29 01:31:34;;;;;;;13.17;11.87;;;;;;;;;;5002849;28;20220;-60
2021/04/29 01:34:01;;;;;;;10.60;9.70;;;;;;;;;;5006518;28;20195;-60
2021/04/29 01:36:28;;;;;;;9.53;8.67;;;;;;;;;;4995741;28;20267;-60
2021/04/29 01:38:55;;;;;;;9.07;8.17;;;;;;;;;;4999614;28;20221;-57
2021/04/29 01:41:21;;;;;;;10.10;8.57;;;;;;;;;;5002363;28;20182;-57
2021/04/29 01:43:47;;;;;;;8.13;7.43;;;;;;;;;;5009584;28;20245;-60
2021/04/29 01:46:13;;;;;;;8.27;7.47;;;;;;;;;;5004969;28;20201;-60
2021/04/29 01:48:39;;;;;;;6.93;6.37;;;;;;;;;;5015200;28;20632;-60
2021/04/29 01:51:05;;;;;;;6.67;6.03;;;;;;;;;;5003802;28;20243;-60
2021/04/29 01:53:31;;;;;;;6.90;6.30;;;;;;;;;;5009270;28;20231;-60
2021/04/29 01:55:57;;;;;;;6.80;5.70;;;;;;;;;;5007402;28;20248;-59
2021/04/29 01:58:24;;;;;;;5.90;5.33;;;;;;;;;;5004047;28;20197;-61
2021/04/29 02:00:51;;;;;;;7.73;4.80;;;;;;;;;;5001849;28;20235;-61
2021/04/29 02:03:17;;;;;;;5.00;4.60;;;;;;;;;;5004003;28;20185;-60
2021/04/29 02:05:43;;;;;;;4.80;4.40;;;;;;;;;;5004398;28;20208;-61
2021/04/29 02:08:09;;;;;;;4.87;4.47;;;;;;;;;;5003608;28;20593;-61
2021/04/29 02:10:35;;;;;;;4.40;4.00;;;;;;;;;;5008449;28;20223;-61
2021/04/29 02:13:02;;;;;;;4.40;4.03;;;;;;;;;;5002627;28;20201;-61
2021/04/29 02:15:31;;;;;;;4.30;3.90;;;;;;;;;;5003634;28;20277;-61
2021/04/29 02:18:03;;;;;;;4.43;4.13;;;;;;;;;;5005073;28;20551;-61
2021/04/29 02:20:30;;;;;;;4.60;4.27;;;;;;;;;;5003455;28;20362;-60
2021/04/29 02:22:56;;;;;;;4.37;3.77;;;;;;;;;;5002564;28;20556;-60
2021/04/29 02:25:27;;;;;;;4.00;3.70;;;;;;;;;;5006325;28;20273;-61
2021/04/29 02:27:53;;;;;;;3.60;3.30;;;;;;;;;;5008929;28;20677;-60
2021/04/29 02:30:19;;;;;;;3.37;3.10;;;;;;;;;;5001531;28;20759;-61
2021/04/29 02:32:45;;;;;;;3.67;2.90;;;;;;;;;;5006353;28;20639;-61
2021/04/29 02:35:14;;;;;;;3.60;2.73;;;;;;;;;;5003932;28;20222;-61
2021/04/29 02:37:40;;;;;;;3.23;2.93;;;;;;;;;;5004910;28;20212;-60
2021/04/29 02:40:09;;;;;;;4.23;2.83;;;;;;;;;;5004144;28;20206;-60
2021/04/29 02:42:35;;;;;;;2.60;2.40;;;;;;;;;;5004075;28;20780;-61
2021/04/29 02:45:02;;;;;;;2.43;2.30;;;;;;;;;;5007610;28;20292;-61
2021/04/29 02:47:28;;;;;;;2.47;2.23;;;;;;;;;;5003339;28;20188;-60
2021/04/29 02:49:54;;;;;;;2.93;2.27;;;;;;;;;;5002847;28;20681;-61
2021/04/29 02:52:20;;;;;;;2.20;2.07;;;;;;;;;;5006658;28;20268;-60
2021/04/29 02:54:46;;;;;;;2.63;1.97;;;;;;;;;;5007520;28;20205;-60
2021/04/29 02:57:22;;;;;;;2.10;2.00;;;;;;;;;;5003893;28;20652;-60
2021/04/29 02:59:48;;;;;;;2.00;1.90;;;;;;;;;;5000229;28;20220;-61
2021/04/29 03:02:15;;;;;;;2.00;1.70;;;;;;;;;;5008448;28;20558;-60
2021/04/29 03:04:41;;;;;;;2.40;2.13;;;;;;;;;;5002709;28;20182;-61
2021/04/29 03:07:07;;;;;;;2.30;1.90;;;;;;;;;;4999616;28;20715;-61
2021/04/29 03:09:33;;;;;;;2.37;1.50;;;;;;;;;;5002521;28;20228;-61
2021/04/29 03:11:59;;;;;;;1.63;1.53;;;;;;;;;;5010037;28;20807;-60
2021/04/29 03:14:25;;;;;;;1.93;1.60;;;;;;;;;;5005906;28;20207;-59
2021/04/29 03:16:51;;;;;;;1.77;1.67;;;;;;;;;;5004060;28;20221;-60
2021/04/29 03:19:17;;;;;;;1.90;1.80;;;;;;;;;;5006513;28;20865;-61
2021/04/29 03:21:43;;;;;;;1.90;1.80;;;;;;;;;;5007907;28;20280;-60
2021/04/29 03:24:09;;;;;;;3.70;1.77;;;;;;;;;;5003065;28;20213;-61
2021/04/29 03:26:36;;;;;;;1.97;1.77;;;;;;;;;;5008915;28;20660;-60
2021/04/29 03:29:02;;;;;;;2.73;1.70;;;;;;;;;;4998933;28;20860;-61
2021/04/29 03:31:28;;;;;;;2.03;1.80;;;;;;;;;;5005824;28;20193;-59
2021/04/29 03:33:54;;;;;;;2.40;1.90;;;;;;;;;;5008167;28;20239;-59
2021/04/29 03:36:20;;;;;;;1.83;1.73;;;;;;;;;;5004618;28;20213;-60
2021/04/29 03:38:46;;;;;;;1.70;1.60;;;;;;;;;;5005835;28;20193;-60
2021/04/29 03:41:12;;;;;;;1.90;1.80;;;;;;;;;;5003909;28;20224;-61
2021/04/29 03:43:38;;;;;;;1.73;1.57;;;;;;;;;;5003733;28;20297;-61
2021/04/29 03:46:04;;;;;;;3.30;1.60;;;;;;;;;;5004947;28;20691;-60
2021/04/29 03:48:30;;;;;;;1.50;1.40;;;;;;;;;;5007069;28;20196;-60
2021/04/29 03:50:56;;;;;;;2.03;1.60;;;;;;;;;;4998825;28;20684;-60
2021/04/29 03:53:22;;;;;;;2.10;1.40;;;;;;;;;;5004357;28;20273;-60
2021/04/29 03:55:48;;;;;;;2.67;1.60;;;;;;;;;;5006147;28;20582;-61
2021/04/29 03:58:14;;;;;;;1.50;1.40;;;;;;;;;;5003186;28;20182;-61
2021/04/29 04:00:40;;;;;;;1.63;1.20;;;;;;;;;;5003896;28;20228;-59
2021/04/29 04:03:06;;;;;;;2.33;1.20;;;;;;;;;;5010996;28;20182;-60
2021/04/29 04:05:32;;;;;;;1.80;1.70;;;;;;;;;;5003941;28;20404;-60
2021/04/29 04:07:58;;;;;;;1.13;1.13;;;;;;;;;;5000730;28;20196;-61
2021/04/29 04:10:24;;;;;;;1.47;1.37;;;;;;;;;;5005563;28;20292;-61
2021/04/29 04:12:50;;;;;;;1.37;1.27;;;;;;;;;;5004672;28;20193;-60
2021/04/29 04:15:16;;;;;;;1.63;1.53;;;;;;;;;;5005507;28;20295;-60
2021/04/29 04:17:42;;;;;;;2.13;1.70;;;;;;;;;;5008069;28;20189;-61
2021/04/29 04:20:09;;;;;;;1.80;1.70;;;;;;;;;;5000683;28;20204;-60
2021/04/29 04:22:35;;;;;;;1.80;1.70;;;;;;;;;;5006711;28;20212;-60
2021/04/29 04:25:01;;;;;;;1.80;1.70;;;;;;;;;;4997500;28;20708;-60
2021/04/29 04:27:27;;;;;;;2.00;1.77;;;;;;;;;;4997920;28;20217;-60
2021/04/29 04:29:53;;;;;;;2.10;1.80;;;;;;;;;;4995265;28;20212;-60
2021/04/29 04:32:19;;;;;;;1.90;1.80;;;;;;;;;;5002564;28;20178;-60
2021/04/29 04:34:45;;;;;;;1.70;1.60;;;;;;;;;;5008657;28;20228;-60
2021/04/29 04:37:11;;;;;;;2.93;1.90;;;;;;;;;;5005131;28;20189;-60
2021/04/29 04:39:37;;;;;;;2.27;2.07;;;;;;;;;;5006942;28;20288;-60
2021/04/29 04:42:06;;;;;;;2.23;1.80;;;;;;;;;;5001792;28;20202;-61
2021/04/29 04:44:32;;;;;;;2.23;1.50;;;;;;;;;;4997983;28;20251;-59
2021/04/29 04:46:58;;;;;;;2.37;2.10;;;;;;;;;;5008813;28;20597;-61
2021/04/29 04:49:24;;;;;;;2.57;2.10;;;;;;;;;;4999866;28;20209;-62
2021/04/29 04:51:50;;;;;;;2.37;2.23;;;;;;;;;;5007109;28;20672;-62
2021/04/29 04:54:19;;;;;;;2.20;2.00;;;;;;;;;;5010288;28;20576;-60
2021/04/29 04:56:46;;;;;;;2.70;2.00;;;;;;;;;;5000302;28;20260;-64
2021/04/29 04:59:13;;;;;;;2.47;2.10;;;;;;;;;;4998336;28;20568;-62
2021/04/29 05:01:39;;;;;;;3.30;2.03;;;;;;;;;;5001683;28;20184;-62
2021/04/29 05:04:06;;;;;;;3.27;2.03;;;;;;;;;;5000737;28;20197;-61
2021/04/29 05:06:34;;;;;;;2.70;2.20;;;;;;;;;;4999065;28;20196;-62
2021/04/29 05:09:00;;;;;;;3.50;2.40;;;;;;;;;;4997967;28;20575;-61
2021/04/29 05:11:26;;;;;;;2.63;2.30;;;;;;;;;;5004087;28;20232;-64
2021/04/29 05:13:52;;;;;;;2.33;2.10;;;;;;;;;;5001436;28;20240;-62
2021/04/29 05:16:18;;;;;;;3.53;2.97;;;;;;;;;;5003005;28;20290;-64
2021/04/29 05:18:44;;;;;;;2.77;2.10;;;;;;;;;;5012817;28;20188;-64
2021/04/29 05:21:10;;;;;;;4.20;2.53;;;;;;;;;;5005636;28;20193;-63
2021/04/29 05:23:36;;;;;;;3.30;3.00;;;;;;;;;;5004661;28;20189;-63
2021/04/29 05:26:02;;;;;;;4.10;3.37;;;;;;;;;;5002417;28;20656;-63
2021/04/29 05:28:28;;;;;;;3.43;3.13;;;;;;;;;;5003374;28;20224;-62
2021/04/29 05:30:54;;;;;;;3.63;2.83;;;;;;;;;;5010291;28;20211;-63
2021/04/29 05:33:20;;;;;;;4.23;3.30;;;;;;;;;;5002558;28;20193;-62
2021/04/29 05:35:46;;;;;;;4.97;3.37;;;;;;;;;;5000974;28;20289;-62
2021/04/29 05:38:12;;;;;;;4.57;3.80;;;;;;;;;;5010087;28;20268;-62
2021/04/29 05:40:38;;;;;;;3.43;2.93;;;;;;;;;;5005272;28;20702;-63
2021/04/29 05:43:04;;;;;;;4.53;2.90;;;;;;;;;;5007164;28;20204;-62
2021/04/29 05:45:30;;;;;;;3.97;3.53;;;;;;;;;;5009163;28;20664;-62
2021/04/29 05:47:56;;;;;;;5.47;3.17;;;;;;;;;;5005916;28;20197;-63
2021/04/29 05:50:22;;;;;;;4.43;3.30;;;;;;;;;;5002338;28;20213;-62
2021/04/29 05:52:48;;;;;;;4.27;3.10;;;;;;;;;;5006529;28;21204;-63
2021/04/29 05:55:14;;;;;;;4.63;3.10;;;;;;;;;;5006732;28;20213;-61
2021/04/29 05:57:40;;;;;;;2.93;2.70;;;;;;;;;;5008328;28;20235;-63
2021/04/29 06:00:07;;;;;;;2.93;2.73;;;;;;;;;;5007506;28;20680;-63
2021/04/29 06:02:33;;;;;;;3.43;2.63;;;;;;;;;;5003972;28;20311;-61
2021/04/29 06:04:59;;;;;;;4.20;3.10;;;;;;;;;;5009796;28;20603;-63
2021/04/29 06:07:25;;;;;;;3.30;2.93;;;;;;;;;;5009125;28;20180;-62
2021/04/29 06:09:51;;;;;;;4.00;3.07;;;;;;;;;;5006542;28;20204;-62
2021/04/29 06:12:17;;;;;;;3.43;3.17;;;;;;;;;;5005160;28;20280;-63
2021/04/29 06:14:44;;;;;;;3.40;3.10;;;;;;;;;;5003410;28;20185;-63
2021/04/29 06:17:10;;;;;;;3.60;3.30;;;;;;;;;;5000491;28;20327;-62
2021/04/29 06:19:36;;;;;;;3.23;2.93;;;;;;;;;;5000165;28;20683;-64
2021/04/29 06:22:03;;;;;;;5.00;3.33;;;;;;;;;;5002241;28;20193;-63
2021/04/29 06:24:29;;;;;;;5.43;3.00;;;;;;;;;;5002821;28;20711;-62
2021/04/29 06:26:55;;;;;;;4.90;3.40;;;;;;;;;;4999588;28;20204;-63
2021/04/29 06:29:21;;;;;;;3.43;3.03;;;;;;;;;;4996739;28;20268;-62
2021/04/29 06:31:47;;;;;;;5.13;2.80;;;;;;;;;;5004198;28;20196;-60
2021/04/29 06:34:14;;;;;;;5.90;3.30;;;;;;;;;;5005876;28;20196;-60
2021/04/29 06:36:41;;;;;;;5.57;3.50;;;;;;;;;;5001363;28;20231;-62
2021/04/29 06:39:07;;;;;;;4.27;3.23;;;;;;;;;;5003640;28;20216;-62
2021/04/29 06:41:33;;;;;;;3.40;3.10;;;;;;;;;;5003679;28;20193;-61
2021/04/29 06:43:59;;;;;;;5.00;3.27;;;;;;;;;;5000162;28;20231;-63
2021/04/29 06:46:25;;;;;;;3.43;3.13;;;;;;;;;;5005766;28;20668;-62
2021/04/29 06:48:51;;;;;;;4.87;3.73;;;;;;;;;;5007226;28;20193;-62
2021/04/29 06:51:17;;;;;;;3.63;3.33;;;;;;;;;;5005290;28;20220;-62
2021/04/29 06:53:43;;;;;;;3.60;2.90;;;;;;;;;;4994080;28;20321;-62
2021/04/29 06:56:09;;;;;;;3.87;3.50;;;;;;;;;;5000971;28;20296;-63
2021/04/29 06:58:35;;;;;;;3.77;3.37;;;;;;;;;;5005455;28;20704;-63
2021/04/29 07:01:02;;;;;;;4.50;3.23;;;;;;;;;;5006617;28;20668;-62
2021/04/29 07:03:28;;;;;;;3.67;3.30;;;;;;;;;;5005329;28;20584;-62
2021/04/29 07:05:54;;;;;;;5.03;3.30;;;;;;;;;;5011197;28;20200;-62
2021/04/29 07:08:20;;;;;;;5.82;3.58;;;;;;;;;;5013216;28;20189;-62
2021/04/29 07:10:48;;;;;;;4.75;3.28;;;;;;;;;;5002537;28;20600;-62
2021/04/29 07:13:14;;;;;;;5.60;3.60;;;;;;;;;;5007315;28;20923;-63
2021/04/29 07:15:41;;;;;;;3.97;3.58;;;;;;;;;;5005639;28;20211;-62
2021/04/29 07:18:09;;;;;;;6.75;3.47;;;;;;;;;;5004899;28;20173;-62
2021/04/29 07:20:36;;;;;;;4.35;3.65;;;;;;;;;;5003915;28;20260;-62
2021/04/29 07:23:03;;;;;;;4.07;3.30;;;;;;;;;;5010902;28;20186;-62
2021/04/29 07:25:29;;;;;;;4.07;3.28;;;;;;;;;;5005698;28;20725;-64
2021/04/29 07:27:55;;;;;;;4.55;3.72;;;;;;;;;;5009511;28;20189;-63
2021/04/29 07:30:21;;;;;;;11.45;3.95;;;;;;;;;;5006225;28;20579;-63
2021/04/29 07:32:47;;;;;;;4.72;4.13;;;;;;;;;;5005875;28;20739;-64
2021/04/29 07:35:13;;;;;;;4.40;4.00;;;;;;;;;;5001609;28;20299;-64
2021/04/29 07:37:39;;;;;;;3.88;3.47;;;;;;;;;;5010223;28;20302;-63
2021/04/29 07:40:06;;;;;;;6.28;4.45;;;;;;;;;;5004125;28;20205;-64
2021/04/29 07:42:32;;;;;;;5.57;4.07;;;;;;;;;;5004322;28;20193;-64
2021/04/29 07:44:58;;;;;;;7.32;4.93;;;;;;;;;;5002728;28;20552;-63
2021/04/29 07:47:24;;;;;;;6.13;4.70;;;;;;;;;;5002717;28;20319;-62
2021/04/29 07:49:50;;;;;;;6.95;4.35;;;;;;;;;;5005170;28;20208;-62
2021/04/29 07:52:16;;;;;;;5.05;4.55;;;;;;;;;;5006945;28;20174;-62
2021/04/29 07:54:42;;;;;;;6.38;3.60;;;;;;;;;;5008423;28;20242;-64
2021/04/29 07:57:08;;;;;;;4.70;4.20;;;;;;;;;;4996236;28;20691;-64
2021/04/29 07:59:34;;;;;;;5.03;4.30;;;;;;;;;;5006052;28;20204;-65
2021/04/29 08:02:00;;;;;;;5.80;4.35;;;;;;;;;;5008243;28;20669;-62
2021/04/29 08:04:29;;;;;;;5.22;4.72;;;;;;;;;;5003157;28;20256;-64
2021/04/29 08:06:56;;;;;;;5.22;4.25;;;;;;;;;;4978645;28;20214;-64
2021/04/29 08:09:22;;;;;;;5.57;4.53;;;;;;;;;;4996570;28;20205;-64
2021/04/29 08:11:48;;;;;;;6.68;4.28;;;;;;;;;;5004644;28;20198;-63
2021/04/29 08:14:14;;;;;;;4.80;3.92;;;;;;;;;;5010978;28;20181;-61
2021/04/29 08:16:40;;;;;;;8.07;5.75;;;;;;;;;;5002847;28;20210;-62
2021/04/29 08:19:06;;;;;;;8.05;5.70;;;;;;;;;;5001487;28;20274;-62
2021/04/29 08:21:32;;;;;;;6.95;6.03;;;;;;;;;;5000417;28;20282;-61
2021/04/29 08:23:58;;;;;;;5.55;5.00;;;;;;;;;;5001678;28;20657;-61
2021/04/29 08:26:25;;;;;;;5.95;4.88;;;;;;;;;;5004038;28;20205;-62
2021/04/29 08:28:51;;;;;;;9.85;6.25;;;;;;;;;;5002994;28;20189;-62
2021/04/29 08:31:17;;;;;;;8.32;5.82;;;;;;;;;;4999653;28;20201;-65
2021/04/29 08:33:43;;;;;;;8.43;6.40;;;;;;;;;;5003685;28;20200;-62
2021/04/29 08:36:09;;;;;;;6.95;5.28;;;;;;;;;;4997809;28;20574;-63
2021/04/29 08:38:35;;;;;;;10.48;7.93;;;;;;;;;;5001895;28;20189;-62
2021/04/29 08:41:02;;;;;;;7.82;7.03;;;;;;;;;;4996875;28;20185;-63
2021/04/29 08:43:28;;;;;;;7.45;6.40;;;;;;;;;;5003680;28;20273;-63
2021/04/29 08:45:54;;;;;;;8.13;7.32;;;;;;;;;;5002263;28;20208;-63
2021/04/29 08:48:24;;;;;;;7.38;6.57;;;;;;;;;;5006057;28;20602;-63
2021/04/29 08:50:51;;;;;;;7.00;6.07;;;;;;;;;;5011959;28;20264;-64
2021/04/29 08:53:17;;;;;;;6.07;5.55;;;;;;;;;;5000939;28;20196;-62
2021/04/29 08:55:43;;;;;;;10.02;6.47;;;;;;;;;;4998070;28;20296;-63
2021/04/29 08:58:09;;;;;;;7.30;6.60;;;;;;;;;;5006164;28;20182;-63
2021/04/29 09:00:36;;;;;;;7.57;5.93;;;;;;;;;;5005726;28;20750;-62
2021/04/29 09:03:02;;;;;;;7.65;6.32;;;;;;;;;;5002610;28;20196;-61
2021/04/29 09:05:30;;;;;;;7.38;6.28;;;;;;;;;;5001883;28;20193;-61
2021/04/29 09:07:57;;;;;;;6.93;6.22;;;;;;;;;;5003741;28;20706;-62
2021/04/29 09:10:25;;;;;;;8.60;6.15;;;;;;;;;;5005031;28;20743;-62
2021/04/29 09:12:51;;;;;;;7.70;6.57;;;;;;;;;;4999430;28;20190;-63
2021/04/29 09:15:27;;;;;;;6.45;5.80;;;;;;;;;;5005447;28;20307;-61
2021/04/29 09:18:10;;;;;;;6.43;5.82;;;;;;;;;;5003906;28;20189;-62
2021/04/29 09:20:37;;;;;;;6.50;5.65;;;;;;;;;;5001085;28;20293;-63
2021/04/29 09:23:07;;;;;;;8.52;6.43;;;;;;;;;;5006956;28;20528;-63
2021/04/29 09:25:37;;;;;;;7.45;6.63;;;;;;;;;;5001455;28;20193;-63
2021/04/29 09:28:03;;;;;;;12.25;6.03;;;;;;;;;;4999859;28;20192;-63
2021/04/29 09:30:30;;;;;;;6.25;5.63;;;;;;;;;;4999730;28;20205;-63
2021/04/29 09:33:00;;;;;;;10.82;6.50;;;;;;;;;;5002562;28;20667;-63
2021/04/29 09:35:27;;;;;;;10.52;6.28;;;;;;;;;;5004521;28;20216;-64
2021/04/29 09:37:59;;;;;;;8.52;6.40;;;;;;;;;;5006969;28;20181;-63
2021/04/29 09:40:25;;;;;;;11.43;6.63;;;;;;;;;;4997627;28;20205;-63
2021/04/29 09:42:52;;;;;;;9.73;6.57;;;;;;;;;;5003838;28;20592;-62
2021/04/29 09:45:20;;;;;;;8.25;7.00;;;;;;;;;;4997460;28;20182;-63
2021/04/29 09:47:55;;;;;;;10.98;6.78;;;;;;;;;;5004279;28;20185;-62
2021/04/29 09:50:25;;;;;;;9.95;7.18;;;;;;;;;;5000835;28;20216;-63
2021/04/29 09:52:58;;;;;;;10.25;7.03;;;;;;;;;;5007091;28;20185;-62
2021/04/29 09:55:28;;;;;;;7.90;7.10;;;;;;;;;;5006676;28;20271;-63
2021/04/29 09:58:27;;;;;;;7.70;6.88;;;;;;;;;;5001953;28;20227;-62
2021/04/29 10:00:53;;;;;;;12.02;7.97;;;;;;;;;;5001516;28;20888;-63
2021/04/29 10:03:20;;;;;;;8.57;7.78;;;;;;;;;;5004371;28;20203;-62
2021/04/29 10:05:50;;;;;;;8.35;7.45;;;;;;;;;;5007288;28;20296;-60
2021/04/29 10:08:17;;;;;;;10.05;7.75;;;;;;;;;;5008657;28;20626;-62
2021/04/29 10:10:44;;;;;;;8.77;7.75;;;;;;;;;;5008203;28;20224;-62
2021/04/29 10:13:10;;;;;;;9.88;6.68;;;;;;;;;;5005759;28;20586;-62
2021/04/29 10:15:38;;;;;;;9.07;6.78;;;;;;;;;;5004189;28;20204;-62
2021/04/29 10:18:04;;;;;;;8.98;6.85;;;;;;;;;;5005228;28;20193;-63
2021/04/29 10:20:31;;;;;;;10.70;7.13;;;;;;;;;;5004134;28;20205;-63
2021/04/29 10:22:58;;;;;;;8.73;7.60;;;;;;;;;;5004070;28;20181;-63
2021/04/29 10:25:27;;;;;;;7.72;6.32;;;;;;;;;;5009870;28;20190;-64
2021/04/29 10:27:55;;;;;;;9.57;6.85;;;;;;;;;;5005205;28;20219;-63
2021/04/29 10:30:30;;;;;;;7.32;6.63;;;;;;;;;;5005367;28;20205;-62
2021/04/29 10:32:56;;;;;;;8.43;6.38;;;;;;;;;;5006218;28;20687;-63
2021/04/29 10:35:23;;;;;;;6.70;6.10;;;;;;;;;;5004643;28;20208;-63
2021/04/29 10:37:56;;;;;;;7.55;6.25;;;;;;;;;;5006312;28;20197;-63
2021/04/29 10:40:39;;;;;;;7.60;6.63;;;;;;;;;;5000248;28;20205;-63
2021/04/29 10:43:05;;;;;;;7.88;6.55;;;;;;;;;;5010628;28;20185;-63
2021/04/29 10:45:31;;;;;;;9.68;7.50;;;;;;;;;;5004194;28;20184;-63
2021/04/29 10:48:10;;;;;;;7.05;6.40;;;;;;;;;;5005862;28;20747;-63
2021/04/29 10:50:46;;;;;;;7.78;5.95;;;;;;;;;;5005738;28;20687;-63
2021/04/29 10:53:27;;;;;;;8.45;7.03;;;;;;;;;;5002689;28;20243;-63
2021/04/29 10:56:19;;;;;;;9.85;7.63;;;;;;;;;;5004814;28;20223;-63
2021/04/29 10:58:46;;;;;;;7.30;6.63;;;;;;;;;;5000434;28;20197;-63
2021/04/29 11:01:15;;;;;;;9.15;7.35;;;;;;;;;;5010377;28;20619;-63
2021/04/29 11:03:50;;;;;;;9.35;6.90;;;;;;;;;;4996369;28;20271;-63
2021/04/29 11:06:29;;;;;;;7.50;6.70;;;;;;;;;;4998847;28;20575;-62
2021/04/29 11:08:56;;;;;;;8.07;6.63;;;;;;;;;;5001518;28;24382;-63
2021/04/29 11:11:22;;;;;;;13.48;6.50;;;;;;;;;;5004659;28;20173;-63
2021/04/29 11:14:01;;;;;;;6.95;5.95;;;;;;;;;;4998052;28;20699;-63
2021/04/29 11:16:28;;;;;;;6.75;5.75;;;;;;;;;;5003732;28;20700;-63
2021/04/29 11:18:54;;;;;;;7.22;5.32;;;;;;;;;;5007692;28;20181;-63
2021/04/29 11:21:27;;;;;;;6.13;5.22;;;;;;;;;;5005179;28;20224;-63
2021/04/29 11:23:54;;;;;;;6.43;5.10;;;;;;;;;;4998927;28;20227;-64
2021/04/29 11:26:21;;;;;;;5.97;4.57;;;;;;;;;;5005777;28;20208;-65
2021/04/29 11:28:48;;;;;;;5.53;4.53;;;;;;;;;;5003295;28;20290;-64
2021/04/29 11:31:17;;;;;;;4.72;4.25;;;;;;;;;;4998301;28;20190;-65
2021/04/29 11:33:45;;;;;;;5.63;4.82;;;;;;;;;;5007199;28;20234;-61
2021/04/29 11:36:22;;;;;;;5.70;4.00;;;;;;;;;;5001335;28;20209;-61
2021/04/29 11:38:56;;;;;;;6.88;4.03;;;;;;;;;;5007521;28;20574;-62
2021/04/29 11:41:23;;;;;;;6.43;4.25;;;;;;;;;;4995779;28;20281;-64
2021/04/29 11:43:59;;;;;;;5.38;4.10;;;;;;;;;;4993094;28;20216;-63
2021/04/29 11:46:25;;;;;;;6.75;4.18;;;;;;;;;;4989760;28;20184;-62
2021/04/29 11:48:58;;;;;;;5.95;3.45;;;;;;;;;;5002012;28;20185;-63
2021/04/29 11:51:25;;;;;;;5.07;3.35;;;;;;;;;;5002386;28;20188;-64
2021/04/29 11:53:52;;;;;;;4.30;3.10;;;;;;;;;;4996800;28;20300;-63
2021/04/29 11:56:18;;;;;;;3.67;3.30;;;;;;;;;;4999110;28;20288;-63
2021/04/29 11:58:44;;;;;;;7.43;3.35;;;;;;;;;;4999077;28;20189;-65
2021/04/29 12:01:14;;;;;;;4.00;3.30;;;;;;;;;;5001175;28;20251;-64
2021/04/29 12:03:40;;;;;;;6.75;4.30;;;;;;;;;;5003222;28;20177;-63
2021/04/29 12:06:07;;;;;;;4.15;3.75;;;;;;;;;;5004971;28;20184;-63
2021/04/29 12:08:34;;;;;;;4.20;3.60;;;;;;;;;;4997799;28;20200;-62
2021/04/29 12:11:00;;;;;;;6.65;3.50;;;;;;;;;;5001482;28;20725;-64
2021/04/29 12:13:33;;;;;;;5.20;4.35;;;;;;;;;;5003913;28;20184;-63
2021/04/29 12:16:00;;;;;;;4.82;3.88;;;;;;;;;;4996448;28;20209;-65
2021/04/29 12:18:27;;;;;;;6.97;4.05;;;;;;;;;;4997817;28;20181;-64
2021/04/29 12:20:53;;;;;;;3.67;3.15;;;;;;;;;;5000986;28;20478;-63
2021/04/29 12:23:19;;;;;;;6.35;3.78;;;;;;;;;;5003402;28;20181;-65
2021/04/29 12:26:01;;;;;;;3.80;3.50;;;;;;;;;;4997559;28;20190;-63
2021/04/29 12:28:32;;;;;;;5.45;3.30;;;;;;;;;;4998908;28;20181;-62
2021/04/29 12:30:58;;;;;;;3.63;3.22;;;;;;;;;;5001522;28;20292;-64
2021/04/29 12:33:25;;;;;;;5.18;3.40;;;;;;;;;;4992963;28;20206;-62
2021/04/29 12:35:51;;;;;;;5.15;3.60;;;;;;;;;;5000120;28;20197;-62
2021/04/29 12:38:19;;;;;;;5.80;3.42;;;;;;;;;;5001191;28;20203;-64
2021/04/29 12:40:45;;;;;;;4.82;3.20;;;;;;;;;;4998813;28;20203;-62
2021/04/29 12:43:21;;;;;;;4.88;3.50;;;;;;;;;;5001721;28;20802;-65
2021/04/29 12:45:49;;;;;;;4.47;3.60;;;;;;;;;;4995732;28;20354;-64
2021/04/29 12:48:31;;;;;;;4.72;3.13;;;;;;;;;;5003619;28;20185;-64
2021/04/29 12:51:15;;;;;;;6.50;3.30;;;;;;;;;;5008327;28;20256;-64
2021/04/29 12:53:50;;;;;;;5.05;3.15;;;;;;;;;;4999071;28;20212;-64
2021/04/29 12:56:26;;;;;;;5.93;3.50;;;;;;;;;;4995418;28;20240;-63
2021/04/29 12:58:52;;;;;;;5.45;3.38;;;;;;;;;;4997522;28;20199;-64
2021/04/29 13:01:24;;;;;;;5.93;3.20;;;;;;;;;;5009722;28;20179;-63
2021/04/29 13:03:51;;;;;;;4.95;3.40;;;;;;;;;;5008286;28;20244;-62
2021/04/29 13:06:18;;;;;;;3.55;3.25;;;;;;;;;;5013157;28;20287;-63
2021/04/29 13:08:50;;;;;;;3.55;3.25;;;;;;;;;;5007115;28;20180;-62
2021/04/29 13:11:28;;;;;;;4.00;3.08;;;;;;;;;;5008530;28;20208;-62
2021/04/29 13:14:01;;;;;;;5.57;3.47;;;;;;;;;;4998362;28;20709;-63
2021/04/29 13:16:28;;;;;;;4.95;3.30;;;;;;;;;;5002869;28;20244;-62
2021/04/29 13:18:55;;;;;;;4.45;3.60;;;;;;;;;;5004177;28;20189;-63
2021/04/29 13:21:21;;;;;;;5.55;3.38;;;;;;;;;;5003101;28;20188;-63
2021/04/29 13:23:47;;;;;;;6.68;3.28;;;;;;;;;;5000710;28;20191;-63
2021/04/29 13:26:13;;;;;;;4.65;3.95;;;;;;;;;;5001662;28;20780;-64
2021/04/29 13:28:39;;;;;;;4.03;3.30;;;;;;;;;;5005932;28;20215;-64
2021/04/29 13:31:05;;;;;;;4.45;3.58;;;;;;;;;;5001263;28;20261;-63
2021/04/29 13:33:31;;;;;;;5.57;3.92;;;;;;;;;;5000445;28;20669;-64
2021/04/29 13:35:57;;;;;;;4.20;3.83;;;;;;;;;;5004000;28;20274;-63
2021/04/29 13:38:23;;;;;;;4.15;3.75;;;;;;;;;;5007773;28;20673;-62
2021/04/29 13:40:49;;;;;;;3.95;3.47;;;;;;;;;;5007649;28;20199;-64
2021/04/29 13:43:15;;;;;;;8.30;3.72;;;;;;;;;;5003945;28;20670;-62
2021/04/29 13:45:41;;;;;;;3.05;2.85;;;;;;;;;;5014779;28;20185;-62
2021/04/29 13:48:07;;;;;;;4.07;3.00;;;;;;;;;;5012574;28;20177;-62
2021/04/29 13:50:33;;;;;;;3.65;3.28;;;;;;;;;;5005440;28;20219;-63
2021/04/29 13:53:00;;;;;;;6.55;3.15;;;;;;;;;;5001223;28;20189;-63
2021/04/29 13:55:26;;;;;;;3.70;2.90;;;;;;;;;;5010760;28;20208;-63
2021/04/29 13:57:52;;;;;;;3.85;2.70;;;;;;;;;;5011572;28;20272;-64
2021/04/29 14:00:19;;;;;;;3.25;2.50;;;;;;;;;;5005890;28;20211;-62
2021/04/29 14:02:45;;;;;;;6.07;2.97;;;;;;;;;;5009303;28;20663;-63
2021/04/29 14:05:11;;;;;;;2.40;2.20;;;;;;;;;;5002618;28;20193;-64
2021/04/29 14:07:37;;;;;;;4.05;3.10;;;;;;;;;;5002593;28;20229;-63
2021/04/29 14:10:03;;;;;;;2.45;2.17;;;;;;;;;;5007989;28;20196;-64
2021/04/29 14:12:29;;;;;;;2.42;2.13;;;;;;;;;;4999884;28;20234;-64
2021/04/29 14:14:55;;;;;;;2.20;1.98;;;;;;;;;;5006919;28;20228;-63
2021/04/29 14:17:22;;;;;;;2.92;2.35;;;;;;;;;;5009604;28;20205;-63
2021/04/29 14:19:49;;;;;;;4.28;3.25;;;;;;;;;;5008884;28;20232;-64
2021/04/29 14:22:15;;;;;;;3.00;2.70;;;;;;;;;;4998729;28;20180;-64
2021/04/29 14:24:41;;;;;;;4.60;3.15;;;;;;;;;;4999578;28;20665;-64
2021/04/29 14:27:08;;;;;;;4.97;4.25;;;;;;;;;;5008588;28;20284;-63
2021/04/29 14:29:34;;;;;;;4.53;4.03;;;;;;;;;;5009960;28;20688;-63
2021/04/29 14:32:00;;;;;;;4.53;3.55;;;;;;;;;;5006312;28;20217;-63
2021/04/29 14:34:26;;;;;;;6.60;5.50;;;;;;;;;;5001688;28;20193;-64
2021/04/29 14:36:52;;;;;;;5.35;4.47;;;;;;;;;;5001210;28;20210;-62
2021/04/29 14:39:18;;;;;;;5.53;3.67;;;;;;;;;;5012267;28;20197;-65
2021/04/29 14:41:45;;;;;;;8.80;4.32;;;;;;;;;;5002550;28;20181;-67
2021/04/29 14:44:12;;;;;;;4.40;3.80;;;;;;;;;;4995698;28;20192;-65